Caloundra, Australia
Current Conditions -  °F | °C
As of 7:00 PM on Thursday 23 Oct 2014 (Local Time) from YBBN Reporting Station
Scattered Clouds Scattered Clouds  
Wind Chill: 70°   Ceiling: Unl
Heat Index: 70°   Visibility: 6mi
Dew Point: 55°   Wind: 14mph
Humidity: 60%   Direction: 30°NNE
Pressure: 30.12"   Gusts: NA
Location:  26.8°S, 153.13°E
Report Text: YBBN 230900Z 03012KT 9999 FEW032CB SCT280 21/13 Q1020
Loading
Personal Weather Stations






























Interactive Weather Map
Tropical Storm Tracking
New forecast layout! Learn more

10-Day Weather Forecast

Advertisements
Track Severe Weather on mobile